Caryville, Florida
Current Conditions -  °F | °C
As of 10:58 AM on Thursday 27 Nov 2014 (Local Time) from K1J0 Reporting Station
Clear Clear  
Wind Chill: 56°   Ceiling: Unl
Heat Index: 56°   Visibility: 10mi
Dew Point: 35°   Wind: 7mph
Humidity: 45%   Direction: 340°NNW
Pressure: 30.35"   Gusts: NA
Location:  30.77°N, 85.81°W
Report Text: K1J0 271658Z AUTO 34006KT 10SM CLR 13/02 A3035 RMK AO2 SLP260 T01330017
Loading
Personal Weather Stations






























Interactive Weather Map New forecast layout! Learn more

10-Day Weather Forecast

Advertisements
Track Severe Weather on mobile